createdAt,value
2022-12-02T00:02:30.295Z,4.20
2022-12-02T00:05:00.047Z,4.20
2022-12-02T00:07:27.018Z,4.20
2022-12-02T00:09:54.149Z,4.20
2022-12-02T00:12:24.325Z,4.20
2022-12-02T00:14:56.516Z,4.20
2022-12-02T00:17:23.979Z,4.20
2022-12-02T00:19:52.701Z,4.10
2022-12-02T00:22:20.039Z,4.20
2022-12-02T00:24:46.852Z,4.20
2022-12-02T00:27:13.624Z,4.10
2022-12-02T00:29:40.424Z,4.20
2022-12-02T00:32:07.367Z,4.20
2022-12-02T00:34:34.218Z,4.20
2022-12-02T00:37:02.408Z,4.10
2022-12-02T00:39:29.122Z,4.20
2022-12-02T00:41:55.867Z,4.10
2022-12-02T00:44:22.768Z,4.20
2022-12-02T00:46:49.528Z,4.20
2022-12-02T00:49:17.691Z,4.10
2022-12-02T00:51:45.732Z,4.20
2022-12-02T00:54:14.426Z,4.20
2022-12-02T00:56:41.243Z,4.10
2022-12-02T00:59:08.111Z,4.20
2022-12-02T01:01:35.571Z,4.10
2022-12-02T01:04:02.969Z,4.20
2022-12-02T01:06:29.798Z,4.20
2022-12-02T01:08:56.528Z,4.20
2022-12-02T01:11:24.723Z,4.10
2022-12-02T01:13:51.563Z,4.10
2022-12-02T01:16:18.401Z,4.10
2022-12-02T01:18:45.219Z,4.20
2022-12-02T01:21:11.941Z,4.20
2022-12-02T01:23:38.740Z,4.20
2022-12-02T01:26:05.885Z,4.20
2022-12-02T01:28:33.992Z,4.20
2022-12-02T01:31:00.900Z,4.20
2022-12-02T01:33:27.816Z,4.20
2022-12-02T01:35:54.636Z,4.20
2022-12-02T01:38:21.374Z,4.20
2022-12-02T01:40:48.426Z,4.20
2022-12-02T01:43:15.371Z,4.10
2022-12-02T01:45:43.674Z,4.20
2022-12-02T01:48:10.574Z,4.20
2022-12-02T01:50:37.620Z,4.10
2022-12-02T01:53:04.536Z,4.10
2022-12-02T01:55:31.691Z,4.20
2022-12-02T01:57:58.960Z,4.20
2022-12-02T02:00:26.678Z,4.10
2022-12-02T02:02:54.771Z,4.10
2022-12-02T02:05:24.175Z,4.10
2022-12-02T02:07:53.852Z,4.10
2022-12-02T02:10:22.299Z,4.10
2022-12-02T02:12:50.685Z,4.10
2022-12-02T02:15:18.721Z,4.20
2022-12-02T02:17:45.888Z,4.20
2022-12-02T02:20:16.266Z,4.10
2022-12-02T02:22:46.905Z,4.20
2022-12-02T02:25:20.326Z,4.20
2022-12-02T02:27:53.119Z,4.20
2022-12-02T02:30:20.598Z,4.20
2022-12-02T02:32:48.045Z,4.20
2022-12-02T02:35:15.730Z,4.10
2022-12-02T02:37:43.076Z,4.20
2022-12-02T02:40:11.458Z,4.20
2022-12-02T02:42:39.617Z,4.20
2022-12-02T02:45:07.650Z,4.20
2022-12-02T02:47:34.420Z,4.20
2022-12-02T02:50:01.283Z,4.20
2022-12-02T02:52:28.289Z,4.10
2022-12-02T02:54:55.019Z,4.10
2022-12-02T02:57:21.792Z,4.10
2022-12-02T02:59:54.965Z,4.10
2022-12-02T03:02:23.656Z,4.10
2022-12-02T03:04:51.035Z,4.20
2022-12-02T03:07:18.859Z,4.20
2022-12-02T03:09:46.641Z,4.10
2022-12-02T03:12:13.630Z,4.10
2022-12-02T03:14:40.421Z,4.10
2022-12-02T03:17:08.667Z,4.10
2022-12-02T03:19:35.825Z,4.20
2022-12-02T03:22:03.148Z,4.10
2022-12-02T03:24:32.457Z,4.10
2022-12-02T03:26:59.749Z,4.10
2022-12-02T03:29:28.009Z,4.10
2022-12-02T03:31:55.296Z,4.10
2022-12-02T03:34:23.582Z,4.10
2022-12-02T03:36:50.454Z,4.10
2022-12-02T03:39:17.489Z,4.20
2022-12-02T03:41:45.799Z,4.10
2022-12-02T03:44:12.755Z,4.10
2022-12-02T03:46:39.696Z,4.10
2022-12-02T03:49:06.797Z,4.10
2022-12-02T03:51:35.121Z,4.10
2022-12-02T03:54:02.077Z,4.10
2022-12-02T03:56:29.088Z,4.10
2022-12-02T03:58:55.825Z,4.10
2022-12-02T04:01:22.811Z,4.10
2022-12-02T04:03:49.716Z,4.10
2022-12-02T04:06:16.473Z,4.10
2022-12-02T04:08:44.675Z,4.10
2022-12-02T04:11:11.528Z,4.10
2022-12-02T04:13:38.265Z,4.10
2022-12-02T04:16:05.958Z,4.10
2022-12-02T04:18:32.830Z,4.10
2022-12-02T04:20:59.577Z,4.10
2022-12-02T04:23:26.421Z,4.10
2022-12-02T04:25:54.499Z,4.10
2022-12-02T04:28:21.257Z,4.20
2022-12-02T04:30:48.032Z,4.10
2022-12-02T04:33:14.788Z,4.10
2022-12-02T04:35:41.594Z,4.10
2022-12-02T04:38:11.967Z,4.10
2022-12-02T04:40:39.462Z,4.10
2022-12-02T04:43:07.714Z,4.10
2022-12-02T04:45:34.453Z,4.10
2022-12-02T04:48:01.209Z,4.10
2022-12-02T04:50:28.026Z,4.10
2022-12-02T04:52:54.765Z,4.10
2022-12-02T04:55:21.561Z,4.10
2022-12-02T04:57:48.381Z,4.10
2022-12-02T05:00:17.181Z,4.10
2022-12-02T05:02:44.009Z,4.10
2022-12-02T05:05:11.107Z,4.10
2022-12-02T05:07:37.968Z,4.10
2022-12-02T05:10:06.102Z,4.10
2022-12-02T05:12:32.844Z,4.10
2022-12-02T05:14:59.634Z,4.10
2022-12-02T05:17:27.854Z,4.10
2022-12-02T05:19:54.589Z,4.10
2022-12-02T05:22:21.329Z,4.10
2022-12-02T05:24:48.302Z,4.10
2022-12-02T05:27:15.528Z,4.10
2022-12-02T05:29:42.338Z,4.10
2022-12-02T05:32:09.059Z,4.10
2022-12-02T05:34:37.149Z,4.10
2022-12-02T05:37:03.924Z,4.10
2022-12-02T05:39:30.717Z,4.10
2022-12-02T05:42:01.715Z,4.10
2022-12-02T05:44:30.105Z,4.10
2022-12-02T05:47:02.065Z,4.10
2022-12-02T05:49:30.775Z,4.10
2022-12-02T05:52:00.716Z,4.10
2022-12-02T05:54:29.132Z,4.10
2022-12-02T05:56:56.788Z,4.10
2022-12-02T05:59:23.882Z,4.10
2022-12-02T06:01:53.488Z,4.10
2022-12-02T06:04:23.756Z,4.10
2022-12-02T06:06:53.111Z,4.10
2022-12-02T06:09:24.935Z,4.10
2022-12-02T06:11:52.985Z,4.10
2022-12-02T06:14:21.845Z,4.10
2022-12-02T06:16:52.446Z,4.10
2022-12-02T06:19:24.544Z,4.10
2022-12-02T06:21:52.327Z,4.00
2022-12-02T06:24:27.201Z,4.10
2022-12-02T06:26:56.763Z,4.10
2022-12-02T06:29:24.263Z,4.10
2022-12-02T06:31:51.261Z,4.10
2022-12-02T06:34:31.250Z,4.10
2022-12-02T06:36:58.999Z,4.10
2022-12-02T06:39:27.168Z,4.10
2022-12-02T06:41:54.297Z,4.10
2022-12-02T06:44:22.653Z,4.10
2022-12-02T06:46:49.382Z,4.10
2022-12-02T06:49:19.571Z,4.10
2022-12-02T06:51:47.255Z,4.10
2022-12-02T06:54:19.407Z,4.10
2022-12-02T06:56:48.320Z,4.10
2022-12-02T06:59:18.906Z,4.10
2022-12-02T07:01:45.828Z,4.10
2022-12-02T07:04:32.271Z,4.10
2022-12-02T07:07:02.427Z,4.10
2022-12-02T07:09:36.820Z,4.10
2022-12-02T07:12:12.125Z,4.10
2022-12-02T07:14:44.121Z,4.10
2022-12-02T07:17:20.309Z,4.00
2022-12-02T07:19:49.842Z,4.00
2022-12-02T07:22:18.616Z,4.00
2022-12-02T07:24:53.211Z,4.10
2022-12-02T07:27:24.744Z,4.10
2022-12-02T07:29:53.382Z,4.10
2022-12-02T07:32:20.132Z,4.00
2022-12-02T07:35:00.472Z,4.10
2022-12-02T07:37:27.184Z,4.00
2022-12-02T07:39:53.884Z,4.00
2022-12-02T07:42:22.025Z,4.00
2022-12-02T07:44:49.037Z,4.10
2022-12-02T07:47:15.830Z,4.10
2022-12-02T07:49:42.583Z,4.10
2022-12-02T07:52:09.317Z,4.10
2022-12-02T07:54:36.076Z,4.10
2022-12-02T07:57:02.837Z,4.10
2022-12-02T07:59:30.937Z,4.10
2022-12-02T08:01:57.704Z,4.10
2022-12-02T08:04:24.470Z,4.10
2022-12-02T08:06:51.373Z,4.10
2022-12-02T08:09:18.124Z,4.10
2022-12-02T08:11:44.922Z,4.10
2022-12-02T08:14:11.654Z,4.10
2022-12-02T08:16:39.875Z,4.10
2022-12-02T08:19:06.624Z,4.10
2022-12-02T08:21:33.588Z,4.10
2022-12-02T08:24:00.460Z,4.10
2022-12-02T08:26:27.285Z,4.10
2022-12-02T08:28:54.538Z,4.10
2022-12-02T08:31:21.701Z,4.10
2022-12-02T08:33:49.854Z,4.10
2022-12-02T08:36:16.623Z,4.10
2022-12-02T08:38:43.636Z,4.10
2022-12-02T08:41:14.036Z,4.10
2022-12-02T08:43:41.646Z,4.10
2022-12-02T08:46:09.468Z,4.10
2022-12-02T08:48:36.391Z,4.10
2022-12-02T08:51:04.805Z,4.10
2022-12-02T08:53:31.550Z,4.10
2022-12-02T08:55:58.312Z,4.10
2022-12-02T08:58:25.049Z,4.10
2022-12-02T09:00:51.769Z,4.10
2022-12-02T09:03:18.530Z,4.10
2022-12-02T09:05:45.300Z,4.10
2022-12-02T09:08:13.410Z,4.10
2022-12-02T09:10:40.157Z,4.10
2022-12-02T09:13:06.899Z,4.20
2022-12-02T09:15:33.671Z,4.20
2022-12-02T09:18:00.466Z,4.20
2022-12-02T09:20:27.228Z,4.20
2022-12-02T09:22:54.012Z,4.20
2022-12-02T09:25:22.490Z,4.20
2022-12-02T09:27:49.319Z,4.20
2022-12-02T09:30:16.184Z,4.20
2022-12-02T09:32:42.937Z,4.20
2022-12-02T09:35:10.203Z,4.20
2022-12-02T09:37:37.315Z,4.20
2022-12-02T09:40:05.273Z,4.20
2022-12-02T09:42:34.219Z,4.20
2022-12-02T09:45:01.114Z,4.20
2022-12-02T09:47:29.487Z,4.30
2022-12-02T09:49:56.713Z,4.20
2022-12-02T09:52:26.282Z,4.30
2022-12-02T09:54:54.333Z,4.30
2022-12-02T09:57:22.742Z,4.30
2022-12-02T09:59:50.837Z,4.30
2022-12-02T10:02:24.467Z,4.30
2022-12-02T10:04:51.486Z,4.30
2022-12-02T10:07:18.400Z,4.30
2022-12-02T10:09:45.202Z,4.30
2022-12-02T10:12:12.212Z,4.30
2022-12-02T10:14:39.165Z,4.30
2022-12-02T10:17:16.016Z,4.30
2022-12-02T10:19:43.105Z,4.30
2022-12-02T10:22:14.597Z,4.30
2022-12-02T10:24:41.420Z,4.30
2022-12-02T10:27:08.526Z,4.30
2022-12-02T10:29:35.533Z,4.30
2022-12-02T10:32:04.354Z,4.30
2022-12-02T10:34:34.200Z,4.30
2022-12-02T10:37:16.232Z,4.30
2022-12-02T10:39:42.968Z,4.30
2022-12-02T10:42:14.154Z,4.30
2022-12-02T10:44:42.830Z,4.30
2022-12-02T10:47:21.183Z,4.30
2022-12-02T10:49:53.952Z,4.30
2022-12-02T10:52:24.637Z,4.40
2022-12-02T10:54:53.952Z,4.30
2022-12-02T10:57:24.217Z,4.30
2022-12-02T10:59:51.954Z,4.30
2022-12-02T11:02:23.225Z,4.40
2022-12-02T11:04:50.682Z,4.40
2022-12-02T11:07:21.886Z,4.40
2022-12-02T11:09:53.098Z,4.40
2022-12-02T11:13:04.190Z,4.40
2022-12-02T11:15:36.876Z,4.50
2022-12-02T11:18:04.105Z,4.50
2022-12-02T11:20:42.856Z,4.40
2022-12-02T11:23:22.626Z,4.50
2022-12-02T11:26:04.633Z,4.40
2022-12-02T11:28:37.485Z,4.40
2022-12-02T11:31:26.919Z,4.40
2022-12-02T11:34:06.401Z,4.40
2022-12-02T11:36:35.402Z,4.40
2022-12-02T11:39:06.756Z,4.40
2022-12-02T11:42:06.797Z,4.40
2022-12-02T11:44:33.584Z,4.40
2022-12-02T11:47:02.594Z,4.40
2022-12-02T11:49:32.759Z,4.30
2022-12-02T11:52:08.624Z,4.40
2022-12-02T11:54:40.040Z,4.30
2022-12-02T11:57:07.622Z,4.30
2022-12-02T11:59:36.187Z,4.30
2022-12-02T12:02:10.611Z,4.30
2022-12-02T12:04:37.416Z,4.30
2022-12-02T12:07:04.696Z,4.30
2022-12-02T12:09:31.580Z,4.30
2022-12-02T12:12:17.262Z,4.30
2022-12-02T12:14:59.160Z,4.30
2022-12-02T12:17:51.557Z,4.30
2022-12-02T12:20:46.420Z,4.20
2022-12-02T12:23:29.131Z,4.20
2022-12-02T12:25:55.924Z,4.20
2022-12-02T12:28:25.167Z,4.20
2022-12-02T12:30:51.986Z,4.20
2022-12-02T12:33:18.805Z,4.10
2022-12-02T12:35:45.632Z,4.10
2022-12-02T12:38:12.408Z,4.20
2022-12-02T12:40:39.136Z,4.10
2022-12-02T12:43:05.898Z,4.20
2022-12-02T12:45:33.950Z,4.20
2022-12-02T12:48:00.676Z,4.20
2022-12-02T12:50:30.189Z,4.20
2022-12-02T12:52:57.175Z,4.20
2022-12-02T12:55:24.078Z,4.20
2022-12-02T12:57:50.857Z,4.20
2022-12-02T13:00:18.304Z,4.20
2022-12-02T13:02:46.485Z,4.10
2022-12-02T13:05:13.329Z,4.20
2022-12-02T13:07:40.256Z,4.20
2022-12-02T13:10:08.537Z,4.20
2022-12-02T13:12:35.386Z,4.10
2022-12-02T13:15:02.111Z,4.10
2022-12-02T13:17:28.901Z,4.10
2022-12-02T13:19:57.036Z,4.10
2022-12-02T13:22:23.775Z,4.10
2022-12-02T13:24:50.487Z,4.20
2022-12-02T13:27:17.253Z,4.20
2022-12-02T13:29:43.965Z,4.20
2022-12-02T13:32:10.710Z,4.10
2022-12-02T13:34:37.455Z,4.20
2022-12-02T13:37:05.536Z,4.10
2022-12-02T13:39:32.310Z,4.10
2022-12-02T13:41:59.065Z,4.10
2022-12-02T13:44:25.818Z,4.20
2022-12-02T13:46:52.688Z,4.20
2022-12-02T13:49:19.536Z,4.20
2022-12-02T13:51:46.248Z,4.20
2022-12-02T13:54:14.349Z,4.20
2022-12-02T13:56:41.098Z,4.20
2022-12-02T13:59:07.885Z,4.20
2022-12-02T14:01:34.676Z,4.20
2022-12-02T14:04:01.499Z,4.20
2022-12-02T14:06:28.299Z,4.20
2022-12-02T14:08:55.014Z,4.20
2022-12-02T14:11:23.179Z,4.20
2022-12-02T14:13:52.841Z,4.30
2022-12-02T14:16:19.829Z,4.30
2022-12-02T14:18:46.810Z,4.30
2022-12-02T14:21:13.704Z,4.30
2022-12-02T14:23:40.412Z,4.30
2022-12-02T14:26:07.186Z,4.30
2022-12-02T14:28:35.281Z,4.30
2022-12-02T14:31:02.130Z,4.30
2022-12-02T14:33:54.717Z,4.30
2022-12-02T14:36:15.585Z,4.30
2022-12-02T14:38:42.312Z,4.30
2022-12-02T14:41:09.087Z,4.30
2022-12-02T14:43:37.229Z,4.30
2022-12-02T14:46:04.215Z,4.30
2022-12-02T14:48:30.963Z,4.30
2022-12-02T14:50:57.722Z,4.30
2022-12-02T14:53:24.449Z,4.30
2022-12-02T14:55:51.567Z,4.30
2022-12-02T14:58:18.369Z,4.30
2022-12-02T15:00:46.504Z,4.30
2022-12-02T15:03:13.248Z,4.30
2022-12-02T15:05:39.991Z,4.20
2022-12-02T15:08:06.822Z,4.20
2022-12-02T15:10:38.349Z,4.20
2022-12-02T15:13:09.196Z,4.20
2022-12-02T15:15:39.302Z,4.20
2022-12-02T15:18:07.958Z,4.20
2022-12-02T15:20:34.726Z,4.20
2022-12-02T15:23:01.451Z,4.20
2022-12-02T15:25:28.186Z,4.20
2022-12-02T15:27:54.891Z,4.20
2022-12-02T15:30:21.674Z,4.20
2022-12-02T15:32:48.503Z,4.20
2022-12-02T15:35:16.734Z,4.20
2022-12-02T15:37:43.527Z,4.20
2022-12-02T15:40:12.207Z,4.20
2022-12-02T15:42:38.936Z,4.20
2022-12-02T15:45:06.493Z,4.20
2022-12-02T15:47:33.274Z,4.20
2022-12-02T15:50:00.049Z,4.20
2022-12-02T15:52:28.136Z,4.20
2022-12-02T15:54:55.021Z,4.20
2022-12-02T15:57:21.861Z,4.20
2022-12-02T15:59:48.610Z,4.20
2022-12-02T16:02:15.472Z,4.20
2022-12-02T16:04:42.212Z,4.20
2022-12-02T16:07:08.952Z,4.20
2022-12-02T16:09:37.108Z,4.20
2022-12-02T16:12:04.413Z,4.20
2022-12-02T16:14:31.164Z,4.20
2022-12-02T16:16:57.910Z,4.10
2022-12-02T16:19:24.675Z,4.10
2022-12-02T16:21:51.428Z,4.10
2022-12-02T16:24:18.155Z,4.10
2022-12-02T16:26:48.418Z,4.10
2022-12-02T16:29:18.845Z,4.10
2022-12-02T16:31:45.632Z,4.10
2022-12-02T16:34:12.405Z,4.10
2022-12-02T16:36:39.150Z,4.10
2022-12-02T16:39:05.897Z,4.10
2022-12-02T16:41:32.612Z,4.10
2022-12-02T16:44:00.745Z,4.10
2022-12-02T16:46:27.600Z,4.10
2022-12-02T16:48:54.397Z,4.10
2022-12-02T16:51:21.141Z,4.10
2022-12-02T16:53:47.902Z,4.10
2022-12-02T16:56:14.636Z,4.10
2022-12-02T16:58:41.375Z,4.10
2022-12-02T17:01:09.510Z,4.10
2022-12-02T17:03:36.333Z,4.10
2022-12-02T17:06:03.180Z,4.10
2022-12-02T17:08:29.915Z,4.10
2022-12-02T17:10:56.633Z,4.10
2022-12-02T17:13:23.395Z,4.10
2022-12-02T17:15:50.698Z,4.00
2022-12-02T17:18:18.817Z,4.00
2022-12-02T17:20:45.552Z,4.00
2022-12-02T17:23:12.272Z,4.00
2022-12-02T17:25:39.013Z,4.00
2022-12-02T17:28:05.772Z,4.10
2022-12-02T17:30:32.525Z,4.10
2022-12-02T17:32:59.272Z,4.00
2022-12-02T17:35:27.486Z,4.00
2022-12-02T17:37:54.253Z,4.00
2022-12-02T17:40:20.994Z,4.00
2022-12-02T17:42:47.729Z,4.00
2022-12-02T17:45:14.665Z,4.00
2022-12-02T17:47:41.497Z,4.00
2022-12-02T17:50:10.230Z,4.00
2022-12-02T17:52:38.330Z,4.00
2022-12-02T17:55:10.330Z,4.00
2022-12-02T17:57:37.569Z,4.00
2022-12-02T18:00:05.669Z,4.00
2022-12-02T18:02:32.554Z,4.00
2022-12-02T18:04:59.321Z,4.00
2022-12-02T18:07:26.278Z,4.00
2022-12-02T18:09:54.391Z,4.00
2022-12-02T18:12:21.153Z,4.00
2022-12-02T18:14:47.873Z,4.00
2022-12-02T18:17:14.724Z,3.90
2022-12-02T18:19:41.812Z,4.00
2022-12-02T18:22:08.569Z,4.00
2022-12-02T18:24:35.348Z,4.00
2022-12-02T18:27:03.533Z,4.00
2022-12-02T18:29:30.310Z,4.00
2022-12-02T18:31:57.031Z,3.90
2022-12-02T18:34:23.842Z,4.00
2022-12-02T18:36:50.620Z,3.90
2022-12-02T18:39:17.361Z,3.90
2022-12-02T18:41:44.085Z,3.90
2022-12-02T18:44:12.206Z,3.90
2022-12-02T18:46:38.983Z,3.90
2022-12-02T18:49:05.780Z,3.90
2022-12-02T18:51:32.545Z,3.90
2022-12-02T18:53:59.356Z,3.90
2022-12-02T18:56:26.094Z,3.90
2022-12-02T18:58:52.841Z,3.90
2022-12-02T19:01:21.034Z,3.90
2022-12-02T19:03:47.872Z,3.90
2022-12-02T19:06:14.707Z,3.90
2022-12-02T19:08:41.421Z,3.90
2022-12-02T19:11:08.218Z,3.90
2022-12-02T19:13:34.989Z,3.90
2022-12-02T19:16:01.772Z,3.90
2022-12-02T19:18:29.905Z,3.90
2022-12-02T19:20:56.710Z,3.90
2022-12-02T19:23:23.453Z,3.90
2022-12-02T19:25:50.687Z,3.90
2022-12-02T19:28:17.717Z,3.90
2022-12-02T19:30:44.494Z,3.90
2022-12-02T19:33:11.286Z,3.90
2022-12-02T19:35:39.381Z,3.90
2022-12-02T19:38:11.617Z,3.90
2022-12-02T19:40:45.085Z,3.90
2022-12-02T19:43:12.703Z,3.90
2022-12-02T19:45:39.472Z,3.90
2022-12-02T19:48:06.416Z,3.90
2022-12-02T19:50:33.195Z,3.90
2022-12-02T19:53:15.623Z,3.90
2022-12-02T19:55:42.462Z,3.90
2022-12-02T19:58:09.275Z,3.90
2022-12-02T20:00:36.262Z,3.90
2022-12-02T20:03:03.485Z,3.90
2022-12-02T20:05:30.457Z,3.90
2022-12-02T20:07:57.256Z,3.90
2022-12-02T20:10:25.423Z,3.90
2022-12-02T20:12:52.144Z,3.90
2022-12-02T20:15:18.918Z,3.90
2022-12-02T20:17:45.740Z,3.90
2022-12-02T20:20:14.081Z,3.90
2022-12-02T20:22:41.145Z,3.90
2022-12-02T20:25:09.082Z,3.90
2022-12-02T20:27:37.448Z,3.90
2022-12-02T20:30:04.932Z,3.90
2022-12-02T20:32:31.909Z,3.90
2022-12-02T20:34:58.656Z,3.90
2022-12-02T20:37:25.446Z,3.90
2022-12-02T20:39:52.219Z,3.90
2022-12-02T20:42:19.021Z,3.90
2022-12-02T20:44:52.412Z,3.90
2022-12-02T20:47:20.729Z,3.90
2022-12-02T20:49:47.486Z,3.90
2022-12-02T20:52:14.233Z,3.90
2022-12-02T20:54:40.951Z,3.90
2022-12-02T20:57:07.721Z,3.90
2022-12-02T20:59:34.457Z,3.90
2022-12-02T21:02:02.668Z,3.90
2022-12-02T21:04:29.430Z,3.90
2022-12-02T21:06:56.245Z,3.90
2022-12-02T21:09:23.508Z,3.90
2022-12-02T21:11:50.259Z,3.90
2022-12-02T21:14:17.046Z,3.90
2022-12-02T21:16:43.852Z,3.90
2022-12-02T21:19:12.238Z,3.90
2022-12-02T21:21:39.070Z,3.90
2022-12-02T21:24:06.170Z,3.90
2022-12-02T21:26:33.285Z,3.90
2022-12-02T21:29:00.047Z,3.90
2022-12-02T21:31:26.999Z,3.90
2022-12-02T21:33:53.757Z,3.90
2022-12-02T21:36:21.865Z,3.90
2022-12-02T21:38:48.605Z,3.90
2022-12-02T21:41:15.390Z,3.90
2022-12-02T21:43:42.139Z,3.90
2022-12-02T21:46:08.945Z,3.90
2022-12-02T21:48:35.814Z,3.90
2022-12-02T21:51:02.538Z,3.90
2022-12-02T21:53:30.650Z,3.90
2022-12-02T21:55:57.496Z,3.90
2022-12-02T21:58:24.275Z,3.90
2022-12-02T22:00:51.161Z,3.90
2022-12-02T22:03:17.897Z,3.80
2022-12-02T22:05:44.621Z,3.80
2022-12-02T22:08:11.398Z,3.80
2022-12-02T22:10:39.548Z,3.80
2022-12-02T22:13:06.297Z,3.80
2022-12-02T22:15:33.097Z,3.80
2022-12-02T22:17:59.910Z,3.80
2022-12-02T22:20:26.780Z,3.80
2022-12-02T22:22:53.505Z,3.80
2022-12-02T22:25:20.245Z,3.80
2022-12-02T22:27:48.391Z,3.90
2022-12-02T22:30:15.346Z,3.80
2022-12-02T22:32:42.155Z,3.80
2022-12-02T22:35:09.735Z,3.80
2022-12-02T22:37:36.555Z,3.80
2022-12-02T22:40:03.407Z,3.80
2022-12-02T22:42:30.151Z,3.80
2022-12-02T22:44:58.249Z,3.80
2022-12-02T22:47:24.990Z,3.80
2022-12-02T22:49:51.732Z,3.80
2022-12-02T22:52:18.501Z,3.80
2022-12-02T22:54:45.252Z,3.70
2022-12-02T22:57:12.001Z,3.70
2022-12-02T22:59:38.736Z,3.70
2022-12-02T23:02:06.887Z,3.70
2022-12-02T23:04:33.678Z,3.70
2022-12-02T23:07:00.530Z,3.70
2022-12-02T23:09:27.294Z,3.70
2022-12-02T23:11:54.005Z,3.70
2022-12-02T23:14:20.763Z,3.70
2022-12-02T23:16:47.598Z,3.70
2022-12-02T23:19:15.741Z,3.70
2022-12-02T23:21:42.496Z,3.70
2022-12-02T23:24:09.263Z,3.70
2022-12-02T23:26:36.004Z,3.70
2022-12-02T23:29:02.945Z,3.70
2022-12-02T23:31:29.829Z,3.70
2022-12-02T23:33:56.683Z,3.60
2022-12-02T23:36:24.809Z,3.60
2022-12-02T23:38:51.505Z,3.60
2022-12-02T23:41:18.244Z,3.60
2022-12-02T23:43:44.970Z,3.60
2022-12-02T23:46:11.734Z,3.60
2022-12-02T23:48:38.532Z,3.60
2022-12-02T23:51:05.429Z,3.60
2022-12-02T23:53:33.519Z,3.60
2022-12-02T23:56:00.295Z,3.60
2022-12-02T23:58:27.013Z,3.60
